sensor_id;sensor_type;location;lat;lon;timestamp;pressure;altitude;pressure_sealevel;temperature;humidity
77583;BME280;66726;52.388;9.986;2023-05-23T00:01:02;100682.66;;;17.90;82.35
77583;BME280;66726;52.388;9.986;2023-05-23T00:03:38;100685.34;;;17.97;81.97
77583;BME280;66726;52.388;9.986;2023-05-23T00:06:12;100689.50;;;17.93;81.60
77583;BME280;66726;52.388;9.986;2023-05-23T00:08:45;100688.06;;;17.97;81.18
77583;BME280;66726;52.388;9.986;2023-05-23T00:11:19;100689.09;;;17.89;82.30
77583;BME280;66726;52.388;9.986;2023-05-23T00:13:57;100688.06;;;17.84;82.34
77583;BME280;66726;52.388;9.986;2023-05-23T00:16:33;100694.09;;;17.86;82.38
77583;BME280;66726;52.388;9.986;2023-05-23T00:19:06;100689.53;;;17.86;82.30
77583;BME280;66726;52.388;9.986;2023-05-23T00:21:40;100681.59;;;17.85;82.65
77583;BME280;66726;52.388;9.986;2023-05-23T00:24:15;100683.88;;;17.74;83.40
77583;BME280;66726;52.388;9.986;2023-05-23T00:26:50;100681.59;;;17.78;82.28
77583;BME280;66726;52.388;9.986;2023-05-23T00:29:23;100684.91;;;17.60;84.29
77583;BME280;66726;52.388;9.986;2023-05-23T00:31:56;100684.09;;;17.60;83.64
77583;BME280;66726;52.388;9.986;2023-05-23T00:34:30;100676.41;;;17.63;83.54
77583;BME280;66726;52.388;9.986;2023-05-23T00:37:03;100676.19;;;17.65;83.33
77583;BME280;66726;52.388;9.986;2023-05-23T00:39:37;100680.72;;;17.51;84.66
77583;BME280;66726;52.388;9.986;2023-05-23T00:42:11;100688.22;;;17.49;84.23
77583;BME280;66726;52.388;9.986;2023-05-23T00:44:44;100686.34;;;17.50;84.33
77583;BME280;66726;52.388;9.986;2023-05-23T00:47:19;100676.75;;;17.41;85.95
77583;BME280;66726;52.388;9.986;2023-05-23T00:49:53;100676.31;;;17.37;86.16
77583;BME280;66726;52.388;9.986;2023-05-23T00:52:27;100685.69;;;17.41;85.29
77583;BME280;66726;52.388;9.986;2023-05-23T00:55:00;100687.56;;;17.47;86.04
77583;BME280;66726;52.388;9.986;2023-05-23T00:57:34;100679.47;;;17.47;85.64
77583;BME280;66726;52.388;9.986;2023-05-23T01:00:14;100677.41;;;17.49;85.86
77583;BME280;66726;52.388;9.986;2023-05-23T01:02:50;100676.56;;;17.42;85.10
77583;BME280;66726;52.388;9.986;2023-05-23T01:05:25;100679.03;;;17.50;85.29
77583;BME280;66726;52.388;9.986;2023-05-23T01:07:58;100675.72;;;17.35;86.31
77583;BME280;66726;52.388;9.986;2023-05-23T01:10:39;100678.19;;;17.43;85.52
77583;BME280;66726;52.388;9.986;2023-05-23T01:13:26;100674.03;;;17.34;85.96
77583;BME280;66726;52.388;9.986;2023-05-23T01:16:09;100673.00;;;17.35;85.57
77583;BME280;66726;52.388;9.986;2023-05-23T01:18:52;100664.88;;;17.35;85.90
77583;BME280;66726;52.388;9.986;2023-05-23T01:21:29;100666.56;;;17.43;85.29
77583;BME280;66726;52.388;9.986;2023-05-23T01:24:38;100676.31;;;17.37;85.87
77583;BME280;66726;52.388;9.986;2023-05-23T01:27:39;100680.44;;;17.13;86.08
77583;BME280;66726;52.388;9.986;2023-05-23T01:30:18;100678.56;;;17.07;86.51
77583;BME280;66726;52.388;9.986;2023-05-23T01:32:55;100685.56;;;16.95;86.98
77583;BME280;66726;52.388;9.986;2023-05-23T01:35:30;100693.28;;;16.92;87.29
77583;BME280;66726;52.388;9.986;2023-05-23T01:38:04;100691.53;;;16.71;88.06
77583;BME280;66726;52.388;9.986;2023-05-23T01:40:37;100689.00;;;16.63;87.09
77583;BME280;66726;52.388;9.986;2023-05-23T01:43:11;100686.63;;;16.53;88.24
77583;BME280;66726;52.388;9.986;2023-05-23T01:45:45;100695.88;;;16.38;87.84
77583;BME280;66726;52.388;9.986;2023-05-23T01:48:20;100693.47;;;16.49;88.02
77583;BME280;66726;52.388;9.986;2023-05-23T01:50:56;100697.28;;;16.27;88.12
77583;BME280;66726;52.388;9.986;2023-05-23T01:53:31;100705.56;;;16.19;87.89
77583;BME280;66726;52.388;9.986;2023-05-23T01:56:06;100698.72;;;16.23;86.94
77583;BME280;66726;52.388;9.986;2023-05-23T01:58:40;100702.16;;;16.10;87.79
77583;BME280;66726;52.388;9.986;2023-05-23T02:01:15;100703.91;;;16.24;86.82
77583;BME280;66726;52.388;9.986;2023-05-23T02:03:49;100714.38;;;16.34;85.99
77583;BME280;66726;52.388;9.986;2023-05-23T02:06:22;100709.63;;;16.36;85.78
77583;BME280;66726;52.388;9.986;2023-05-23T02:08:55;100709.84;;;16.41;84.86
77583;BME280;66726;52.388;9.986;2023-05-23T02:11:29;100723.53;;;16.33;84.58
77583;BME280;66726;52.388;9.986;2023-05-23T02:14:02;100718.00;;;16.20;85.00
77583;BME280;66726;52.388;9.986;2023-05-23T02:16:35;100715.69;;;16.17;84.49
77583;BME280;66726;52.388;9.986;2023-05-23T02:19:09;100726.19;;;15.99;85.46
77583;BME280;66726;52.388;9.986;2023-05-23T02:21:42;100726.63;;;16.02;84.83
77583;BME280;66726;52.388;9.986;2023-05-23T02:24:15;100727.34;;;15.90;85.67
77583;BME280;66726;52.388;9.986;2023-05-23T02:26:50;100731.53;;;15.92;84.76
77583;BME280;66726;52.388;9.986;2023-05-23T02:29:23;100738.59;;;15.93;83.76
77583;BME280;66726;52.388;9.986;2023-05-23T02:31:57;100738.81;;;15.70;84.31
77583;BME280;66726;52.388;9.986;2023-05-23T02:34:30;100731.53;;;15.71;84.90
77583;BME280;66726;52.388;9.986;2023-05-23T02:37:04;100738.75;;;15.85;83.67
77583;BME280;66726;52.388;9.986;2023-05-23T02:39:39;100738.91;;;15.84;83.02
77583;BME280;66726;52.388;9.986;2023-05-23T02:42:13;100732.84;;;15.75;82.39
77583;BME280;66726;52.388;9.986;2023-05-23T02:44:46;100738.91;;;15.84;83.16
77583;BME280;66726;52.388;9.986;2023-05-23T02:47:19;100739.38;;;15.87;82.31
77583;BME280;66726;52.388;9.986;2023-05-23T02:49:53;100742.41;;;15.78;81.57
77583;BME280;66726;52.388;9.986;2023-05-23T02:52:27;100741.06;;;15.67;81.76
77583;BME280;66726;52.388;9.986;2023-05-23T02:55:00;100743.81;;;15.73;81.65
77583;BME280;66726;52.388;9.986;2023-05-23T02:57:34;100747.03;;;15.62;82.44
77583;BME280;66726;52.388;9.986;2023-05-23T03:00:10;100741.50;;;15.49;82.52
77583;BME280;66726;52.388;9.986;2023-05-23T03:02:44;100741.09;;;15.52;82.12
77583;BME280;66726;52.388;9.986;2023-05-23T03:05:18;100743.41;;;15.55;82.19
77583;BME280;66726;52.388;9.986;2023-05-23T03:07:51;100736.84;;;15.43;82.58
77583;BME280;66726;52.388;9.986;2023-05-23T03:10:25;100743.00;;;15.37;82.38
77583;BME280;66726;52.388;9.986;2023-05-23T03:12:59;100740.84;;;15.47;82.36
77583;BME280;66726;52.388;9.986;2023-05-23T03:15:32;100748.28;;;15.09;84.46
77583;BME280;66726;52.388;9.986;2023-05-23T03:18:05;100747.78;;;15.20;84.11
77583;BME280;66726;52.388;9.986;2023-05-23T03:20:39;100750.13;;;15.23;83.51
77583;BME280;66726;52.388;9.986;2023-05-23T03:23:13;100744.03;;;15.36;82.62
77583;BME280;66726;52.388;9.986;2023-05-23T03:25:46;100748.78;;;15.34;82.29
77583;BME280;66726;52.388;9.986;2023-05-23T03:28:19;100745.97;;;15.42;82.11
77583;BME280;66726;52.388;9.986;2023-05-23T03:30:53;100745.03;;;15.50;81.49
77583;BME280;66726;52.388;9.986;2023-05-23T03:33:26;100742.25;;;15.43;81.59
77583;BME280;66726;52.388;9.986;2023-05-23T03:35:59;100744.66;;;15.38;81.67
77583;BME280;66726;52.388;9.986;2023-05-23T03:38:33;100744.47;;;15.40;79.71
77583;BME280;66726;52.388;9.986;2023-05-23T03:41:06;100741.13;;;15.38;80.62
77583;BME280;66726;52.388;9.986;2023-05-23T03:43:40;100739.66;;;15.35;80.37
77583;BME280;66726;52.388;9.986;2023-05-23T03:46:13;100743.81;;;15.38;80.40
77583;BME280;66726;52.388;9.986;2023-05-23T03:48:47;100743.97;;;15.30;81.28
77583;BME280;66726;52.388;9.986;2023-05-23T03:51:20;100743.50;;;15.26;82.03
77583;BME280;66726;52.388;9.986;2023-05-23T03:53:55;100740.97;;;15.03;82.13
77583;BME280;66726;52.388;9.986;2023-05-23T03:56:29;100739.53;;;15.07;82.54
77583;BME280;66726;52.388;9.986;2023-05-23T03:59:02;100745.53;;;15.03;82.85
77583;BME280;66726;52.388;9.986;2023-05-23T04:01:36;100751.28;;;15.00;83.25
77583;BME280;66726;52.388;9.986;2023-05-23T04:04:10;100754.63;;;15.02;83.12
77583;BME280;66726;52.388;9.986;2023-05-23T04:06:44;100748.59;;;15.00;82.74
77583;BME280;66726;52.388;9.986;2023-05-23T04:09:18;100745.97;;;15.06;82.98
77583;BME280;66726;52.388;9.986;2023-05-23T04:11:52;100755.34;;;15.10;83.15
77583;BME280;66726;52.388;9.986;2023-05-23T04:14:25;100753.22;;;15.06;83.49
77583;BME280;66726;52.388;9.986;2023-05-23T04:16:58;100753.16;;;15.20;82.29
77583;BME280;66726;52.388;9.986;2023-05-23T04:19:32;100754.78;;;15.15;83.00
77583;BME280;66726;52.388;9.986;2023-05-23T04:22:06;100749.66;;;15.20;82.62
77583;BME280;66726;52.388;9.986;2023-05-23T04:24:39;100757.56;;;15.21;82.81
77583;BME280;66726;52.388;9.986;2023-05-23T04:27:13;100754.22;;;15.19;82.83
77583;BME280;66726;52.388;9.986;2023-05-23T04:29:47;100756.25;;;15.17;82.69
77583;BME280;66726;52.388;9.986;2023-05-23T04:32:20;100753.47;;;15.11;82.96
77583;BME280;66726;52.388;9.986;2023-05-23T04:34:54;100745.91;;;15.00;83.64
77583;BME280;66726;52.388;9.986;2023-05-23T04:37:29;100754.31;;;15.11;83.26
77583;BME280;66726;52.388;9.986;2023-05-23T04:40:04;100747.75;;;14.99;83.48
77583;BME280;66726;52.388;9.986;2023-05-23T04:42:38;100754.09;;;14.92;83.74
77583;BME280;66726;52.388;9.986;2023-05-23T04:45:14;100755.47;;;14.88;83.78
77583;BME280;66726;52.388;9.986;2023-05-23T04:47:47;100749.28;;;14.73;83.87
77583;BME280;66726;52.388;9.986;2023-05-23T04:50:21;100748.91;;;14.76;83.78
77583;BME280;66726;52.388;9.986;2023-05-23T04:52:55;100749.84;;;14.68;84.22
77583;BME280;66726;52.388;9.986;2023-05-23T04:55:28;100750.66;;;14.68;83.81
77583;BME280;66726;52.388;9.986;2023-05-23T04:58:02;100751.97;;;14.73;83.62
77583;BME280;66726;52.388;9.986;2023-05-23T05:00:35;100746.94;;;14.69;83.93
77583;BME280;66726;52.388;9.986;2023-05-23T05:03:09;100753.81;;;14.57;84.62
77583;BME280;66726;52.388;9.986;2023-05-23T05:05:43;100754.94;;;14.63;84.46
77583;BME280;66726;52.388;9.986;2023-05-23T05:08:16;100754.75;;;14.64;84.52
77583;BME280;66726;52.388;9.986;2023-05-23T05:10:51;100747.03;;;14.61;84.36
77583;BME280;66726;52.388;9.986;2023-05-23T05:13:24;100745.47;;;14.67;84.12
77583;BME280;66726;52.388;9.986;2023-05-23T05:15:57;100750.47;;;14.70;84.20
77583;BME280;66726;52.388;9.986;2023-05-23T05:18:31;100753.00;;;14.71;83.90
77583;BME280;66726;52.388;9.986;2023-05-23T05:21:06;100755.22;;;14.53;85.16
77583;BME280;66726;52.388;9.986;2023-05-23T05:23:39;100754.94;;;14.48;85.62
77583;BME280;66726;52.388;9.986;2023-05-23T05:26:13;100754.28;;;14.46;86.11
77583;BME280;66726;52.388;9.986;2023-05-23T05:28:46;100757.28;;;14.51;86.58
77583;BME280;66726;52.388;9.986;2023-05-23T05:31:20;100764.69;;;14.49;86.96
77583;BME280;66726;52.388;9.986;2023-05-23T05:33:53;100763.66;;;14.50;86.73
77583;BME280;66726;52.388;9.986;2023-05-23T05:36:27;100772.06;;;14.33;87.13
77583;BME280;66726;52.388;9.986;2023-05-23T05:39:00;100768.63;;;14.24;87.46
77583;BME280;66726;52.388;9.986;2023-05-23T05:41:34;100765.19;;;14.30;87.73
77583;BME280;66726;52.388;9.986;2023-05-23T05:44:07;100765.19;;;14.30;87.51
77583;BME280;66726;52.388;9.986;2023-05-23T05:46:41;100756.75;;;14.33;88.30
77583;BME280;66726;52.388;9.986;2023-05-23T05:49:15;100767.22;;;14.28;88.20
77583;BME280;66726;52.388;9.986;2023-05-23T05:51:48;100767.97;;;14.22;89.16
77583;BME280;66726;52.388;9.986;2023-05-23T05:54:23;100764.72;;;14.27;89.25
77583;BME280;66726;52.388;9.986;2023-05-23T05:56:56;100771.31;;;14.24;89.46
77583;BME280;66726;52.388;9.986;2023-05-23T05:59:29;100765.16;;;14.38;88.71
77583;BME280;66726;52.388;9.986;2023-05-23T06:02:03;100763.19;;;14.47;87.89
77583;BME280;66726;52.388;9.986;2023-05-23T06:04:37;100758.66;;;14.47;88.63
77583;BME280;66726;52.388;9.986;2023-05-23T06:07:11;100762.28;;;14.54;87.42
77583;BME280;66726;52.388;9.986;2023-05-23T06:09:44;100767.94;;;14.45;88.44
77583;BME280;66726;52.388;9.986;2023-05-23T06:12:17;100768.97;;;14.44;89.27
77583;BME280;66726;52.388;9.986;2023-05-23T06:14:51;100770.66;;;14.45;88.94
77583;BME280;66726;52.388;9.986;2023-05-23T06:17:24;100770.59;;;14.30;90.00
77583;BME280;66726;52.388;9.986;2023-05-23T06:19:57;100775.97;;;14.30;89.93
77583;BME280;66726;52.388;9.986;2023-05-23T06:22:31;100764.50;;;14.36;89.04
77583;BME280;66726;52.388;9.986;2023-05-23T06:25:06;100769.13;;;14.42;89.10
77583;BME280;66726;52.388;9.986;2023-05-23T06:27:39;100764.50;;;14.36;89.41
77583;BME280;66726;52.388;9.986;2023-05-23T06:30:15;100761.84;;;14.28;89.89
77583;BME280;66726;52.388;9.986;2023-05-23T06:32:49;100772.28;;;14.31;90.17
77583;BME280;66726;52.388;9.986;2023-05-23T06:35:22;100767.19;;;14.36;89.94
77583;BME280;66726;52.388;9.986;2023-05-23T06:37:55;100771.19;;;14.40;89.86
77583;BME280;66726;52.388;9.986;2023-05-23T06:40:29;100773.56;;;14.35;90.09
77583;BME280;66726;52.388;9.986;2023-05-23T06:43:02;100774.28;;;14.29;90.75
77583;BME280;66726;52.388;9.986;2023-05-23T06:45:35;100773.56;;;14.35;90.42
77583;BME280;66726;52.388;9.986;2023-05-23T06:48:09;100778.00;;;14.28;91.12
77583;BME280;66726;52.388;9.986;2023-05-23T06:50:43;100773.91;;;14.32;90.75
77583;BME280;66726;52.388;9.986;2023-05-23T06:53:16;100775.03;;;14.23;91.32
77583;BME280;66726;52.388;9.986;2023-05-23T06:55:50;100786.75;;;14.30;90.31
77583;BME280;66726;52.388;9.986;2023-05-23T06:58:25;100779.81;;;14.36;90.65
77583;BME280;66726;52.388;9.986;2023-05-23T07:00:59;100781.00;;;14.33;91.33
77583;BME280;66726;52.388;9.986;2023-05-23T07:03:32;100783.63;;;14.41;90.38
77583;BME280;66726;52.388;9.986;2023-05-23T07:06:05;100788.44;;;14.31;90.84
77583;BME280;66726;52.388;9.986;2023-05-23T07:08:39;100789.44;;;14.30;90.65
77583;BME280;66726;52.388;9.986;2023-05-23T07:11:13;100787.59;;;14.31;91.75
77583;BME280;66726;52.388;9.986;2023-05-23T07:13:46;100785.06;;;14.29;90.85
77583;BME280;66726;52.388;9.986;2023-05-23T07:16:19;100794.53;;;14.25;91.03
77583;BME280;66726;52.388;9.986;2023-05-23T07:18:53;100797.78;;;14.20;91.31
77583;BME280;66726;52.388;9.986;2023-05-23T07:21:26;100794.88;;;14.22;90.70
77583;BME280;66726;52.388;9.986;2023-05-23T07:23:59;100806.25;;;14.32;89.47
77583;BME280;66726;52.388;9.986;2023-05-23T07:26:33;100801.22;;;14.29;89.63
77583;BME280;66726;52.388;9.986;2023-05-23T07:29:06;100799.91;;;14.25;89.04
77583;BME280;66726;52.388;9.986;2023-05-23T07:31:39;100809.97;;;14.31;88.38
77583;BME280;66726;52.388;9.986;2023-05-23T07:34:13;100803.91;;;14.29;88.28
77583;BME280;66726;52.388;9.986;2023-05-23T07:36:46;100806.97;;;14.26;87.93
77583;BME280;66726;52.388;9.986;2023-05-23T07:39:21;100810.84;;;14.09;88.83
77583;BME280;66726;52.388;9.986;2023-05-23T07:41:55;100809.34;;;14.06;88.59
77583;BME280;66726;52.388;9.986;2023-05-23T07:44:29;100813.16;;;14.12;88.07
77583;BME280;66726;52.388;9.986;2023-05-23T07:47:02;100818.47;;;14.20;87.49
77583;BME280;66726;52.388;9.986;2023-05-23T07:49:36;100818.84;;;14.17;88.42
77583;BME280;66726;52.388;9.986;2023-05-23T07:52:09;100813.53;;;14.09;87.80
77583;BME280;66726;52.388;9.986;2023-05-23T07:54:42;100821.22;;;14.12;87.96
77583;BME280;66726;52.388;9.986;2023-05-23T07:57:16;100824.59;;;14.14;88.39
77583;BME280;66726;52.388;9.986;2023-05-23T07:59:49;100826.63;;;14.12;87.63
77583;BME280;66726;52.388;9.986;2023-05-23T08:02:23;100836.06;;;14.08;88.05
77583;BME280;66726;52.388;9.986;2023-05-23T08:04:57;100841.53;;;14.00;87.96
77583;BME280;66726;52.388;9.986;2023-05-23T08:07:31;100841.34;;;13.79;88.24
77583;BME280;66726;52.388;9.986;2023-05-23T08:10:04;100844.00;;;13.87;87.83
77583;BME280;66726;52.388;9.986;2023-05-23T08:12:38;100844.56;;;13.74;89.09
77583;BME280;66726;52.388;9.986;2023-05-23T08:15:13;100846.38;;;13.82;88.39
77583;BME280;66726;52.388;9.986;2023-05-23T08:17:46;100854.84;;;13.70;87.99
77583;BME280;66726;52.388;9.986;2023-05-23T08:20:20;100849.94;;;13.74;88.31
77583;BME280;66726;52.388;9.986;2023-05-23T08:22:53;100849.81;;;13.67;88.52
77583;BME280;66726;52.388;9.986;2023-05-23T08:25:29;100852.47;;;13.76;87.31
77583;BME280;66726;52.388;9.986;2023-05-23T08:28:03;100864.06;;;13.76;88.07
77583;BME280;66726;52.388;9.986;2023-05-23T08:30:37;100855.31;;;13.74;88.05
77583;BME280;66726;52.388;9.986;2023-05-23T08:33:10;100863.47;;;13.66;88.47
77583;BME280;66726;52.388;9.986;2023-05-23T08:35:44;100868.97;;;13.73;88.18
77583;BME280;66726;52.388;9.986;2023-05-23T08:38:17;100870.97;;;13.70;88.64
77583;BME280;66726;52.388;9.986;2023-05-23T08:40:55;100878.06;;;13.71;87.83
77583;BME280;66726;52.388;9.986;2023-05-23T08:43:32;100879.03;;;13.79;86.79
77583;BME280;66726;52.388;9.986;2023-05-23T08:46:06;100887.59;;;13.51;88.20
77583;BME280;66726;52.388;9.986;2023-05-23T08:48:42;100886.50;;;13.60;87.99
77583;BME280;66726;52.388;9.986;2023-05-23T08:51:18;100889.59;;;13.49;89.18
77583;BME280;66726;52.388;9.986;2023-05-23T08:53:53;100897.50;;;13.51;89.12
77583;BME280;66726;52.388;9.986;2023-05-23T08:56:28;100898.69;;;13.48;88.38
77583;BME280;66726;52.388;9.986;2023-05-23T08:59:02;100902.38;;;13.55;88.21
77583;BME280;66726;52.388;9.986;2023-05-23T09:01:38;100903.69;;;13.59;88.68
77583;BME280;66726;52.388;9.986;2023-05-23T09:04:13;100915.47;;;13.50;87.82
77583;BME280;66726;52.388;9.986;2023-05-23T09:06:47;100914.00;;;13.48;88.14
77583;BME280;66726;52.388;9.986;2023-05-23T09:09:20;100916.69;;;13.40;87.61
77583;BME280;66726;52.388;9.986;2023-05-23T09:11:56;100918.25;;;13.34;88.87
77583;BME280;66726;52.388;9.986;2023-05-23T09:14:30;100925.81;;;13.39;89.01
77583;BME280;66726;52.388;9.986;2023-05-23T09:17:08;100941.41;;;13.43;88.79
77583;BME280;66726;52.388;9.986;2023-05-23T09:19:45;100950.50;;;13.34;88.77
77583;BME280;66726;52.388;9.986;2023-05-23T09:22:25;100964.47;;;13.38;88.94
77583;BME280;66726;52.388;9.986;2023-05-23T09:24:59;100949.66;;;13.34;89.61
77583;BME280;66726;52.388;9.986;2023-05-23T09:27:32;100962.13;;;13.35;89.20
77583;BME280;66726;52.388;9.986;2023-05-23T09:30:12;100967.03;;;13.15;88.82
77583;BME280;66726;52.388;9.986;2023-05-23T09:33:00;100964.69;;;13.04;88.44
77583;BME280;66726;52.388;9.986;2023-05-23T09:35:37;100960.50;;;12.93;88.30
77583;BME280;66726;52.388;9.986;2023-05-23T09:38:15;100973.75;;;12.95;89.22
77583;BME280;66726;52.388;9.986;2023-05-23T09:40:49;100978.47;;;13.09;88.45
77583;BME280;66726;52.388;9.986;2023-05-23T09:43:25;100982.16;;;13.08;87.72
77583;BME280;66726;52.388;9.986;2023-05-23T09:46:02;100975.09;;;13.07;87.75
77583;BME280;66726;52.388;9.986;2023-05-23T09:48:39;100982.16;;;13.08;87.84
77583;BME280;66726;52.388;9.986;2023-05-23T09:51:22;100988.88;;;13.04;88.72
77583;BME280;66726;52.388;9.986;2023-05-23T09:53:56;100985.84;;;12.99;88.82
77583;BME280;66726;52.388;9.986;2023-05-23T09:56:30;101000.13;;;12.91;88.04
77583;BME280;66726;52.388;9.986;2023-05-23T09:59:07;100996.94;;;12.96;87.75
77583;BME280;66726;52.388;9.986;2023-05-23T10:01:45;100996.28;;;12.94;88.36
77583;BME280;66726;52.388;9.986;2023-05-23T10:04:29;101007.69;;;12.96;88.65
77583;BME280;66726;52.388;9.986;2023-05-23T10:07:11;101017.94;;;12.92;88.57
77583;BME280;66726;52.388;9.986;2023-05-23T10:09:54;101014.06;;;12.79;87.63
77583;BME280;66726;52.388;9.986;2023-05-23T10:12:49;101023.81;;;12.80;88.23
77583;BME280;66726;52.388;9.986;2023-05-23T10:15:27;101029.84;;;12.82;87.57
77583;BME280;66726;52.388;9.986;2023-05-23T10:18:14;101033.56;;;12.81;87.17
77583;BME280;66726;52.388;9.986;2023-05-23T10:20:53;101036.22;;;12.56;87.55
77583;BME280;66726;52.388;9.986;2023-05-23T10:23:30;101036.91;;;12.75;86.46
77583;BME280;66726;52.388;9.986;2023-05-23T10:26:07;101040.09;;;12.78;86.42
77583;BME280;66726;52.388;9.986;2023-05-23T10:28:41;101041.78;;;12.63;86.83
77583;BME280;66726;52.388;9.986;2023-05-23T10:31:15;101046.97;;;12.73;85.72
77583;BME280;66726;52.388;9.986;2023-05-23T10:33:55;101057.22;;;12.69;86.03
77583;BME280;66726;52.388;9.986;2023-05-23T10:36:36;101055.22;;;12.63;85.36
77583;BME280;66726;52.388;9.986;2023-05-23T10:39:25;101060.41;;;12.64;86.25
77583;BME280;66726;52.388;9.986;2023-05-23T10:42:06;101076.19;;;12.59;86.07
77583;BME280;66726;52.388;9.986;2023-05-23T10:44:43;101076.84;;;12.61;85.37
77583;BME280;66726;52.388;9.986;2023-05-23T10:47:28;101088.91;;;12.57;85.44
77583;BME280;66726;52.388;9.986;2023-05-23T10:50:03;101087.94;;;12.58;85.12
77583;BME280;66726;52.388;9.986;2023-05-23T10:52:42;101086.22;;;12.57;86.52
77583;BME280;66726;52.388;9.986;2023-05-23T10:55:21;101092.28;;;12.67;85.79
77583;BME280;66726;52.388;9.986;2023-05-23T10:58:17;101085.09;;;12.60;85.07
77583;BME280;66726;52.388;9.986;2023-05-23T11:01:02;101094.97;;;12.67;85.37
77583;BME280;66726;52.388;9.986;2023-05-23T11:03:50;101085.25;;;12.66;85.44
77583;BME280;66726;52.388;9.986;2023-05-23T11:06:39;101087.78;;;12.68;83.92
77583;BME280;66726;52.388;9.986;2023-05-23T11:09:17;101082.19;;;12.45;84.54
77583;BME280;66726;52.388;9.986;2023-05-23T11:12:01;101103.34;;;12.48;84.34
77583;BME280;66726;52.388;9.986;2023-05-23T11:14:55;101112.75;;;12.52;83.66
77583;BME280;66726;52.388;9.986;2023-05-23T11:17:35;101117.63;;;12.57;84.81
77583;BME280;66726;52.388;9.986;2023-05-23T11:20:11;101122.34;;;12.63;84.29
77583;BME280;66726;52.388;9.986;2023-05-23T11:23:02;101125.50;;;12.50;83.71
77583;BME280;66726;52.388;9.986;2023-05-23T11:25:47;101133.25;;;12.53;83.73
77583;BME280;66726;52.388;9.986;2023-05-23T11:28:20;101129.34;;;12.48;82.15
77583;BME280;66726;52.388;9.986;2023-05-23T11:30:55;101134.53;;;12.41;82.47
77583;BME280;66726;52.388;9.986;2023-05-23T11:33:30;101134.38;;;12.43;82.21
77583;BME280;66726;52.388;9.986;2023-05-23T11:36:07;101146.63;;;12.45;82.43
77583;BME280;66726;52.388;9.986;2023-05-23T11:38:41;101143.47;;;12.50;80.94
77583;BME280;66726;52.388;9.986;2023-05-23T11:41:14;101139.38;;;12.38;80.76
77583;BME280;66726;52.388;9.986;2023-05-23T11:43:55;101154.50;;;12.39;81.45
77583;BME280;66726;52.388;9.986;2023-05-23T11:46:30;101152.66;;;12.39;80.78
77583;BME280;66726;52.388;9.986;2023-05-23T11:49:11;101146.28;;;12.40;81.22
77583;BME280;66726;52.388;9.986;2023-05-23T11:51:44;101138.22;;;12.40;82.00
77583;BME280;66726;52.388;9.986;2023-05-23T11:54:18;101148.09;;;12.32;80.86
77583;BME280;66726;52.388;9.986;2023-05-23T11:56:56;101147.63;;;12.36;81.74
77583;BME280;66726;52.388;9.986;2023-05-23T11:59:30;101152.34;;;12.42;82.06
77583;BME280;66726;52.388;9.986;2023-05-23T12:02:06;101148.97;;;12.40;81.56
77583;BME280;66726;52.388;9.986;2023-05-23T12:04:40;101144.00;;;12.53;82.05
77583;BME280;66726;52.388;9.986;2023-05-23T12:07:13;101155.06;;;12.58;81.21
77583;BME280;66726;52.388;9.986;2023-05-23T12:09:52;101149.66;;;12.50;79.90
77583;BME280;66726;52.388;9.986;2023-05-23T12:12:27;101159.41;;;12.51;80.47
77583;BME280;66726;52.388;9.986;2023-05-23T12:15:05;101159.78;;;12.56;79.83
77583;BME280;66726;52.388;9.986;2023-05-23T12:17:39;101161.44;;;12.57;78.84
77583;BME280;66726;52.388;9.986;2023-05-23T12:20:16;101156.25;;;12.64;78.20
77583;BME280;66726;52.388;9.986;2023-05-23T12:22:49;101158.97;;;12.72;78.21
77583;BME280;66726;52.388;9.986;2023-05-23T12:25:22;101161.50;;;12.82;78.04
77583;BME280;66726;52.388;9.986;2023-05-23T12:27:57;101162.91;;;12.94;77.80
77583;BME280;66726;52.388;9.986;2023-05-23T12:30:42;101163.75;;;12.94;75.91
77583;BME280;66726;52.388;9.986;2023-05-23T12:33:16;101172.66;;;13.03;76.19
77583;BME280;66726;52.388;9.986;2023-05-23T12:35:50;101166.09;;;13.05;75.30
77583;BME280;66726;52.388;9.986;2023-05-23T12:38:23;101159.06;;;13.04;74.21
77583;BME280;66726;52.388;9.986;2023-05-23T12:41:18;101155.22;;;13.15;75.22
77583;BME280;66726;52.388;9.986;2023-05-23T12:43:56;101159.59;;;13.24;73.34
77583;BME280;66726;52.388;9.986;2023-05-23T12:46:30;101148.81;;;13.32;72.59
77583;BME280;66726;52.388;9.986;2023-05-23T12:49:04;101163.13;;;13.41;72.98
77583;BME280;66726;52.388;9.986;2023-05-23T12:51:37;101170.69;;;13.45;71.78
77583;BME280;66726;52.388;9.986;2023-05-23T12:54:11;101164.13;;;13.40;71.61
77583;BME280;66726;52.388;9.986;2023-05-23T12:56:44;101175.06;;;13.30;73.19
77583;BME280;66726;52.388;9.986;2023-05-23T12:59:18;101171.72;;;13.28;71.38
77583;BME280;66726;52.388;9.986;2023-05-23T13:01:51;101178.91;;;13.36;70.97
77583;BME280;66726;52.388;9.986;2023-05-23T13:04:25;101191.88;;;13.40;71.92
77583;BME280;66726;52.388;9.986;2023-05-23T13:07:00;101185.13;;;13.36;71.74
77583;BME280;66726;52.388;9.986;2023-05-23T13:09:34;101189.66;;;13.36;71.44
77583;BME280;66726;52.388;9.986;2023-05-23T13:12:09;101191.84;;;13.32;71.89
77583;BME280;66726;52.388;9.986;2023-05-23T13:14:44;101199.78;;;13.42;72.40
77583;BME280;66726;52.388;9.986;2023-05-23T13:17:18;101187.66;;;13.38;70.22
77583;BME280;66726;52.388;9.986;2023-05-23T13:19:52;101189.53;;;13.45;70.53
77583;BME280;66726;52.388;9.986;2023-05-23T13:22:25;101182.47;;;13.52;68.40
77583;BME280;66726;52.388;9.986;2023-05-23T13:24:58;101194.22;;;13.67;68.32
77583;BME280;66726;52.388;9.986;2023-05-23T13:27:31;101197.56;;;13.86;66.77
77583;BME280;66726;52.388;9.986;2023-05-23T13:30:06;101218.41;;;14.00;65.20
77583;BME280;66726;52.388;9.986;2023-05-23T13:32:40;101192.84;;;13.96;63.59